Kanawha Falls, West Virginia
Current Conditions -  °F | °C
As of 7:51 AM on Friday 19 Dec 2014 (Local Time) from KBKW Reporting Station
Overcast Overcast  
Wind Chill: 14°   Ceiling: 1200
Heat Index: 24°   Visibility: 10mi
Dew Point: 18°   Wind: 10mph
Humidity: 77%   Direction: 340°NNW
Pressure: 30.15"   Gusts: NA
Location:  38.14°N, 81.21°W
Report Text: KBKW 191251Z AUTO 34009KT 10SM OVC012 M04/M08 A3015 RMK AO2 SLP244 T10441078
Loading
Personal Weather Stations






























Interactive Weather Map New forecast layout! Learn more

10-Day Weather Forecast

Advertisements
Track Severe Weather on mobile